createdAt,value
2023-03-23T16:00:28.079Z,18.08
2023-03-23T16:05:29.708Z,17.92
2023-03-23T16:10:31.026Z,17.93
2023-03-23T16:15:32.558Z,17.73
2023-03-23T16:20:36.253Z,17.69
2023-03-23T16:25:40.212Z,17.75
2023-03-23T16:30:43.313Z,17.57
2023-03-23T16:35:45.030Z,17.54
2023-03-23T16:40:47.182Z,17.37
2023-03-23T16:45:49.255Z,17.29
2023-03-23T16:50:51.945Z,17.21
2023-03-23T16:55:53.414Z,17.08
2023-03-23T17:01:01.033Z,16.83
2023-03-23T17:06:02.586Z,16.72
2023-03-23T17:11:04.080Z,16.65
2023-03-23T17:16:06.116Z,16.49
2023-03-23T17:21:07.621Z,16.45
2023-03-23T17:26:08.958Z,16.36
2023-03-23T17:31:10.520Z,16.22
2023-03-23T17:36:11.949Z,16.12
2023-03-23T17:41:13.350Z,16.06
2023-03-23T17:46:15.331Z,16.09
2023-03-23T17:51:16.669Z,16.04
2023-03-23T17:56:18.110Z,16.06
2023-03-23T18:01:19.531Z,16.01
2023-03-23T18:06:25.859Z,16.01
2023-03-23T18:11:31.576Z,16.03
2023-03-23T18:16:37.662Z,15.99
2023-03-23T18:22:04.467Z,15.98
2023-03-23T18:27:05.823Z,15.97
2023-03-23T18:32:08.089Z,15.99
2023-03-23T18:37:10.818Z,16.06
2023-03-23T18:42:12.147Z,16.05
2023-03-23T18:47:13.511Z,16.04
2023-03-23T18:52:14.858Z,15.94
2023-03-23T18:57:17.888Z,15.90
2023-03-23T19:02:20.376Z,15.84
2023-03-23T19:07:21.762Z,15.84
2023-03-23T19:12:38.060Z,15.79
2023-03-23T19:17:39.546Z,15.78
2023-03-23T19:22:41.191Z,15.79
2023-03-23T19:28:14.693Z,15.77
2023-03-23T19:33:04.711Z,15.76
2023-03-23T19:38:06.899Z,15.77
2023-03-23T19:43:08.418Z,15.83
2023-03-23T19:48:10.203Z,15.88
2023-03-23T19:53:14.026Z,15.94
2023-03-23T19:58:16.309Z,15.96
2023-03-23T20:03:18.350Z,16.01
2023-03-23T20:08:19.725Z,16.12
2023-03-23T20:13:21.066Z,16.09
2023-03-23T20:18:22.624Z,16.12
2023-03-23T20:23:25.185Z,16.14
2023-03-23T20:28:26.776Z,16.22
2023-03-23T20:33:30.352Z,16.25
2023-03-23T20:38:35.214Z,16.35
2023-03-23T20:43:37.663Z,16.32
2023-03-23T20:48:40.127Z,16.33
2023-03-23T20:53:41.619Z,16.31
2023-03-23T20:58:43.450Z,16.28
2023-03-23T21:03:45.494Z,16.35
2023-03-23T21:08:47.029Z,16.40
2023-03-23T21:13:49.182Z,16.32
2023-03-23T21:18:51.167Z,16.32
2023-03-23T21:23:53.820Z,16.25
2023-03-23T21:29:00.897Z,16.20
2023-03-23T21:34:02.567Z,16.21
2023-03-23T21:39:05.967Z,16.16
2023-03-23T21:44:10.572Z,16.15
2023-03-23T21:49:19.065Z,16.17
2023-03-23T21:54:21.571Z,16.17
2023-03-23T21:59:23.826Z,16.06
2023-03-23T22:04:25.351Z,16.09
2023-03-23T22:09:26.689Z,16.01
2023-03-23T22:14:28.499Z,16.02
2023-03-23T22:19:29.853Z,15.96
2023-03-23T22:24:31.925Z,15.98
2023-03-23T22:29:34.943Z,16.01
2023-03-23T22:34:37.758Z,15.98
2023-03-23T22:39:39.305Z,15.98
2023-03-23T22:44:50.573Z,15.91
2023-03-23T22:49:53.096Z,15.90
2023-03-23T22:54:54.584Z,15.80
2023-03-23T22:59:56.789Z,15.80
2023-03-23T23:04:59.086Z,15.70
2023-03-23T23:10:00.619Z,15.43
2023-03-23T23:15:06.730Z,15.21
2023-03-23T23:20:12.841Z,15.20
2023-03-23T23:25:16.217Z,15.08
2023-03-23T23:30:18.643Z,14.81
2023-03-23T23:35:21.236Z,14.47
2023-03-23T23:40:22.953Z,14.38
2023-03-23T23:45:24.396Z,14.29
2023-03-23T23:50:26.434Z,14.17
2023-03-23T23:55:27.841Z,14.18
